Time;durP1;ratioP1;P1;durP2;ratioP2;P2;SDS_P1;SDS_P2;PMS_P1;PMS_P2;Temp;Humidity;BMP_temperature;BMP_pressure;BME280_temperature;BME280_humidity;BME280_pressure;Samples;Min_cycle;Max_cycle;Signal;HPM_P1;HPM_P2
2023/09/20 00:03:13;;;;;;;4.00;2.90;;;19.40;95.50;;;;;;10486241;28;20748;-67
2023/09/20 00:08:14;;;;;;;5.45;2.90;;;19.50;95.60;;;;;;10494840;28;20763;-68
2023/09/20 00:13:15;;;;;;;3.60;2.45;;;19.50;95.60;;;;;;10491264;28;21313;-67
2023/09/20 00:18:15;;;;;;;5.33;2.80;;;19.50;95.60;;;;;;10491569;28;20951;-68
2023/09/20 00:23:21;;;;;;;5.33;3.27;;;19.40;95.60;;;;;;10491862;28;20447;-67
2023/09/20 00:28:22;;;;;;;4.53;2.90;;;19.50;95.60;;;;;;10497119;28;20407;-67
2023/09/20 00:33:23;;;;;;;6.27;3.10;;;19.50;95.60;;;;;;10503256;28;20906;-68
2023/09/20 00:38:24;;;;;;;5.53;3.13;;;19.50;95.60;;;;;;10502670;28;20887;-68
2023/09/20 00:43:25;;;;;;;4.65;2.88;;;19.50;95.60;;;;;;10501779;28;20465;-68
2023/09/20 00:48:29;;;;;;;4.88;2.92;;;19.60;95.60;;;;;;10500823;28;20469;-67
2023/09/20 00:53:30;;;;;;;4.40;3.00;;;19.50;95.50;;;;;;10505144;28;20413;-68
2023/09/20 00:58:34;;;;;;;5.85;3.20;;;19.40;95.50;;;;;;10500528;28;20682;-68
2023/09/20 01:03:35;;;;;;;4.88;3.03;;;19.50;95.70;;;;;;10500541;28;20745;-67
2023/09/20 01:08:35;;;;;;;4.63;2.90;;;19.50;95.50;;;;;;10501723;28;20398;-66
2023/09/20 01:13:37;;;;;;;4.77;2.93;;;19.50;95.50;;;;;;10501175;28;20498;-68
2023/09/20 01:18:39;;;;;;;5.32;3.17;;;19.50;95.50;;;;;;10496773;28;20885;-67
2023/09/20 01:23:42;;;;;;;5.15;3.10;;;19.50;95.50;;;;;;10494554;28;20445;-68
2023/09/20 01:28:43;;;;;;;6.55;3.20;;;19.40;95.50;;;;;;10497051;28;20400;-68
2023/09/20 01:33:43;;;;;;;4.78;3.30;;;19.50;95.50;;;;;;10504364;28;20425;-66
2023/09/20 01:38:45;;;;;;;6.22;3.42;;;19.50;95.50;;;;;;10505753;28;20440;-68
2023/09/20 01:43:45;;;;;;;5.72;3.20;;;19.50;95.50;;;;;;10505279;28;20932;-67
2023/09/20 01:48:47;;;;;;;4.50;3.30;;;19.50;95.50;;;;;;10493628;28;20488;-67
2023/09/20 01:53:47;;;;;;;6.60;3.63;;;19.50;95.50;;;;;;10499267;28;20892;-68
2023/09/20 01:58:51;;;;;;;4.90;3.53;;;19.50;95.50;;;;;;10495985;28;21018;-67
2023/09/20 02:03:52;;;;;;;6.15;3.30;;;19.50;95.40;;;;;;10497481;28;20914;-67
2023/09/20 02:08:53;;;;;;;5.18;3.53;;;19.50;95.50;;;;;;10495683;28;20405;-67
2023/09/20 02:13:53;;;;;;;5.68;3.45;;;19.50;95.50;;;;;;10500871;28;20435;-67
2023/09/20 02:18:54;;;;;;;4.80;3.20;;;19.50;95.50;;;;;;10498568;28;20551;-68
2023/09/20 02:23:56;;;;;;;6.40;3.47;;;19.50;95.50;;;;;;10491764;28;20447;-68
2023/09/20 02:28:57;;;;;;;6.93;3.60;;;19.50;95.50;;;;;;10488380;28;20398;-67
2023/09/20 02:33:59;;;;;;;6.13;3.60;;;19.50;95.50;;;;;;10485627;28;20722;-67
2023/09/20 02:38:59;;;;;;;4.60;3.45;;;19.50;95.50;;;;;;10496792;28;20409;-68
2023/09/20 02:44:00;;;;;;;6.20;3.43;;;19.50;95.50;;;;;;10498227;28;20909;-68
2023/09/20 02:49:00;;;;;;;5.47;3.47;;;19.50;95.50;;;;;;10499603;28;20406;-68
2023/09/20 02:54:01;;;;;;;6.67;3.70;;;19.50;95.50;;;;;;10498226;28;20488;-68
2023/09/20 02:59:06;;;;;;;4.80;3.43;;;19.50;95.50;;;;;;10495993;28;20897;-67
2023/09/20 03:04:07;;;;;;;5.93;3.78;;;19.50;95.50;;;;;;10506319;28;20408;-68
2023/09/20 03:09:08;;;;;;;6.40;3.57;;;19.50;95.50;;;;;;10499238;28;20398;-68
2023/09/20 03:14:12;;;;;;;5.33;3.70;;;19.50;95.50;;;;;;10499475;28;21107;-68
2023/09/20 03:19:14;;;;;;;6.28;3.53;;;19.40;95.50;;;;;;10488841;28;20551;-67
2023/09/20 03:24:14;;;;;;;5.45;3.60;;;19.40;95.50;;;;;;10494293;28;20446;-67
2023/09/20 03:29:17;;;;;;;4.80;3.60;;;19.50;95.50;;;;;;10486747;28;20461;-67
2023/09/20 03:34:20;;;;;;;5.05;3.45;;;19.40;95.50;;;;;;10495847;28;20755;-68
2023/09/20 03:39:24;;;;;;;6.90;3.80;;;19.40;95.50;;;;;;10495643;28;20407;-68
2023/09/20 03:44:25;;;;;;;6.60;3.80;;;19.40;95.50;;;;;;10502125;28;20453;-67
2023/09/20 03:49:26;;;;;;;5.78;3.72;;;19.40;95.50;;;;;;10494487;28;20388;-68
2023/09/20 03:54:28;;;;;;;4.93;3.58;;;19.40;95.50;;;;;;10498755;28;20399;-66
2023/09/20 03:59:31;;;;;;;5.47;3.65;;;19.40;95.50;;;;;;10501638;28;20410;-67
2023/09/20 04:04:34;;;;;;;6.03;3.70;;;19.40;95.50;;;;;;10504270;28;20413;-67
2023/09/20 04:09:35;;;;;;;6.20;4.22;;;19.40;95.50;;;;;;10509433;28;20893;-68
2023/09/20 04:14:36;;;;;;;5.77;3.97;;;19.40;95.50;;;;;;10505193;28;20420;-68
2023/09/20 04:19:39;;;;;;;6.60;4.00;;;19.40;95.50;;;;;;10497978;28;20453;-66
2023/09/20 04:24:40;;;;;;;7.70;3.83;;;19.40;95.80;;;;;;10492071;28;21053;-67
2023/09/20 04:29:46;;;;;;;5.40;3.90;;;19.40;95.50;;;;;;10498452;28;20456;-67
2023/09/20 04:34:47;;;;;;;4.97;3.90;;;19.40;95.50;;;;;;10505890;28;20817;-68
2023/09/20 04:39:47;;;;;;;5.35;3.70;;;19.60;95.50;;;;;;10500021;28;20461;-68
2023/09/20 04:44:49;;;;;;;5.90;3.80;;;19.40;95.50;;;;;;10512753;28;20497;-68
2023/09/20 04:49:50;;;;;;;6.93;4.07;;;19.40;95.50;;;;;;10501678;28;20397;-65
2023/09/20 04:54:53;;;;;;;5.20;3.70;;;19.30;95.50;;;;;;10506711;28;20446;-67
2023/09/20 04:59:54;;;;;;;5.10;3.60;;;19.30;95.50;;;;;;10495353;28;20820;-66
2023/09/20 05:04:56;;;;;;;5.67;3.60;;;19.30;95.50;;;;;;10504000;28;20410;-65
2023/09/20 05:09:57;;;;;;;4.82;3.90;;;19.30;95.60;;;;;;10503819;28;20403;-66
2023/09/20 05:14:57;;;;;;;5.90;3.50;;;19.30;95.60;;;;;;10503766;28;20409;-65
2023/09/20 05:19:58;;;;;;;7.03;3.88;;;19.30;95.60;;;;;;10500845;28;20487;-65
2023/09/20 05:24:59;;;;;;;6.13;3.70;;;19.30;95.60;;;;;;10499079;28;20406;-65
2023/09/20 05:30:00;;;;;;;4.93;3.70;;;19.40;95.50;;;;;;10497744;28;21106;-64
2023/09/20 05:35:01;;;;;;;6.55;3.38;;;19.40;95.60;;;;;;10510009;28;20806;-65
2023/09/20 05:40:02;;;;;;;6.03;3.93;;;19.30;95.50;;;;;;10503917;28;20501;-66
2023/09/20 05:45:05;;;;;;;5.32;3.40;;;19.30;95.60;;;;;;10501600;28;21159;-65
2023/09/20 05:50:07;;;;;;;4.88;3.60;;;19.30;95.50;;;;;;10509186;28;20512;-65
2023/09/20 05:55:14;;;;;;;5.38;3.40;;;19.30;95.50;;;;;;10504532;28;20394;-66
2023/09/20 06:00:18;;;;;;;6.13;3.50;;;19.30;95.50;;;;;;10506969;28;20405;-65
2023/09/20 06:05:24;;;;;;;6.40;3.63;;;19.30;95.50;;;;;;10481692;28;20434;-64
2023/09/20 06:10:25;;;;;;;4.72;3.20;;;19.30;95.50;;;;;;10498236;28;20399;-65
2023/09/20 06:15:26;;;;;;;5.20;3.38;;;19.30;95.50;;;;;;10485412;28;20898;-67
2023/09/20 06:20:27;;;;;;;5.47;3.27;;;19.30;95.50;;;;;;10501169;28;20411;-66
2023/09/20 06:25:29;;;;;;;5.20;3.15;;;19.30;95.50;;;;;;10490676;28;21175;-65
2023/09/20 06:30:30;;;;;;;6.80;3.37;;;19.30;95.50;;;;;;10498494;28;20413;-64
2023/09/20 06:35:30;;;;;;;4.93;3.10;;;19.30;95.40;;;;;;10489974;28;20409;-66
2023/09/20 06:40:38;;;;;;;5.70;3.10;;;19.30;95.40;;;;;;10493496;28;21692;-66
2023/09/20 06:45:50;;;;;;;5.75;3.38;;;19.40;95.40;;;;;;10491664;28;20442;-65
2023/09/20 06:50:55;;;;;;;6.10;2.95;;;19.30;95.40;;;;;;10491173;28;20408;-66
2023/09/20 06:55:59;;;;;;;4.47;3.20;;;19.30;95.40;;;;;;10490203;28;20721;-65
2023/09/20 07:01:03;;;;;;;5.20;3.10;;;19.30;95.40;;;;;;10490713;28;20436;-65
2023/09/20 07:06:05;;;;;;;6.30;3.10;;;19.30;95.40;;;;;;10493806;28;20792;-65
2023/09/20 07:11:06;;;;;;;6.25;3.50;;;19.40;95.40;;;;;;10501360;28;20420;-65
2023/09/20 07:16:06;;;;;;;7.07;3.23;;;19.40;95.70;;;;;;10490327;28;20433;-65
2023/09/20 07:21:07;;;;;;;5.90;3.20;;;19.40;95.50;;;;;;10487400;28;20967;-66
2023/09/20 07:26:08;;;;;;;4.20;2.95;;;19.40;95.40;;;;;;10492657;28;20824;-66
2023/09/20 07:31:09;;;;;;;4.80;3.22;;;19.70;95.40;;;;;;10491555;28;20398;-65
2023/09/20 07:36:11;;;;;;;4.60;3.00;;;19.60;95.40;;;;;;10508625;28;20936;-65
2023/09/20 07:41:18;;;;;;;5.47;3.17;;;19.50;95.30;;;;;;10495269;28;20464;-66
2023/09/20 07:46:20;;;;;;;5.23;3.13;;;19.70;95.30;;;;;;10494588;28;20431;-66
2023/09/20 07:51:23;;;;;;;5.28;3.17;;;19.60;95.30;;;;;;10500626;28;20476;-65
2023/09/20 07:56:24;;;;;;;4.40;3.00;;;19.60;95.30;;;;;;10501995;28;20495;-65
2023/09/20 08:01:29;;;;;;;6.80;3.35;;;19.60;95.30;;;;;;10504851;28;20401;-66
2023/09/20 08:06:35;;;;;;;4.78;3.00;;;19.60;95.30;;;;;;10500459;28;20449;-67
2023/09/20 08:11:37;;;;;;;4.57;3.20;;;19.60;95.30;;;;;;10504728;28;20393;-67
2023/09/20 08:16:38;;;;;;;5.70;3.30;;;19.60;95.30;;;;;;10506523;28;20423;-66
2023/09/20 08:21:39;;;;;;;5.07;3.47;;;19.60;95.40;;;;;;10509107;28;20958;-66
2023/09/20 09:04:00;;;;;;;5.47;3.80;;;19.70;95.50;;;;;;10498525;28;20419;-66
2023/09/20 09:09:04;;;;;;;5.80;3.63;;;19.60;95.50;;;;;;10481305;28;20406;-65
2023/09/20 09:14:05;;;;;;;5.30;3.60;;;19.70;95.50;;;;;;10493482;28;20437;-66
2023/09/20 09:19:07;;;;;;;4.78;3.60;;;19.70;95.50;;;;;;10494112;28;20397;-66
2023/09/20 09:24:08;;;;;;;6.60;3.40;;;19.70;95.50;;;;;;10494623;28;20496;-66
2023/09/20 09:29:19;;;;;;;5.40;3.63;;;19.70;95.50;;;;;;10485745;28;20900;-66
2023/09/20 09:34:19;;;;;;;5.20;3.40;;;19.80;95.50;;;;;;10496106;28;20452;-66
2023/09/20 09:39:20;;;;;;;4.47;3.13;;;19.80;95.40;;;;;;10505260;28;20496;-66
2023/09/20 09:44:21;;;;;;;5.47;3.10;;;19.90;95.40;;;;;;10493126;28;20410;-65
2023/09/20 09:49:24;;;;;;;6.47;3.33;;;19.90;95.40;;;;;;10498907;28;20405;-65
2023/09/20 09:54:27;;;;;;;5.10;3.20;;;19.90;95.40;;;;;;10486037;28;20421;-66
2023/09/20 09:59:27;;;;;;;5.13;2.93;;;19.90;95.40;;;;;;10496304;28;20417;-66
2023/09/20 10:04:30;;;;;;;4.37;3.30;;;19.90;95.40;;;;;;10495325;28;20488;-67
2023/09/20 10:09:37;;;;;;;5.27;3.10;;;19.90;95.40;;;;;;10494794;28;20390;-66
2023/09/20 10:14:39;;;;;;;5.35;3.38;;;19.90;95.40;;;;;;10508862;28;20413;-66
2023/09/20 10:19:42;;;;;;;4.38;2.90;;;20.00;95.40;;;;;;10497564;28;20407;-67
2023/09/20 10:24:50;;;;;;;3.40;2.83;;;20.00;95.40;;;;;;10482481;28;20419;-66
2023/09/20 10:30:14;;;;;;;4.00;3.30;;;20.00;95.40;;;;;;10473215;28;20418;-66
2023/09/20 10:35:29;;;;;;;6.55;2.70;;;20.00;95.40;;;;;;10494990;28;20500;-66
2023/09/20 10:45:52;;;;;;;4.63;3.30;;;20.00;95.50;;;;;;10488708;28;20742;-67
2023/09/20 10:50:57;;;;;;;4.28;3.03;;;20.00;95.50;;;;;;10486781;28;20434;-67
2023/09/20 10:55:58;;;;;;;4.80;3.13;;;20.00;95.60;;;;;;10493389;28;20983;-67
2023/09/20 11:00:59;;;;;;;4.20;3.00;;;20.00;95.60;;;;;;10489052;28;20398;-66
2023/09/20 11:06:00;;;;;;;5.53;3.17;;;20.00;95.50;;;;;;10487596;28;20487;-66
2023/09/20 11:11:01;;;;;;;4.05;2.90;;;20.00;95.50;;;;;;10483937;28;20994;-66
2023/09/20 11:16:03;;;;;;;4.93;3.30;;;20.00;95.50;;;;;;10492364;28;20394;-67
2023/09/20 11:21:04;;;;;;;5.22;3.20;;;20.10;95.50;;;;;;10489613;28;20401;-66
2023/09/20 11:26:05;;;;;;;4.70;3.57;;;20.10;95.50;;;;;;10484620;28;20809;-67
2023/09/20 11:31:05;;;;;;;5.00;3.20;;;20.10;95.40;;;;;;10484747;28;20402;-66
2023/09/20 11:36:18;;;;;;;5.33;3.13;;;20.20;95.40;;;;;;10481795;28;20417;-69
2023/09/20 11:41:23;;;;;;;5.45;2.88;;;20.20;95.50;;;;;;10488993;28;20398;-69
2023/09/20 11:46:28;;;;;;;4.25;3.00;;;20.20;95.50;;;;;;10495432;28;20417;-67
2023/09/20 11:51:30;;;;;;;4.73;3.30;;;20.20;95.50;;;;;;10492812;28;20405;-68
2023/09/20 11:56:34;;;;;;;4.72;3.25;;;20.20;95.50;;;;;;10490387;28;20420;-68
2023/09/20 12:01:40;;;;;;;4.82;2.70;;;20.20;95.50;;;;;;10489787;28;20403;-72
2023/09/20 12:06:41;;;;;;;5.03;2.90;;;20.30;95.80;;;;;;10481262;28;20506;-72
2023/09/20 12:11:43;;;;;;;5.00;2.80;;;20.30;96.10;;;;;;10489722;28;20396;-72
2023/09/20 12:16:47;;;;;;;5.75;2.97;;;20.40;96.00;;;;;;10493036;28;20782;-77
2023/09/20 12:21:49;;;;;;;7.57;3.08;;;20.50;96.10;;;;;;10497145;28;20435;-71
2023/09/20 12:26:49;;;;;;;4.88;2.80;;;20.60;96.20;;;;;;10495382;28;20908;-72
2023/09/20 12:31:52;;;;;;;7.23;3.07;;;20.60;96.00;;;;;;10499281;28;20491;-71
2023/09/20 12:36:53;;;;;;;5.83;2.70;;;20.70;96.20;;;;;;10503503;28;20411;-70
2023/09/20 12:41:54;;;;;;;6.38;2.85;;;20.60;95.80;;;;;;10499456;28;20397;-70
2023/09/20 12:46:54;;;;;;;5.35;2.53;;;20.70;95.80;;;;;;10497469;28;20908;-70
2023/09/20 12:52:02;;;;;;;4.77;2.70;;;20.90;95.40;;;;;;10502766;28;20409;-71
2023/09/20 12:57:03;;;;;;;5.68;2.50;;;21.00;95.20;;;;;;10492464;28;20799;-70
2023/09/20 13:02:03;;;;;;;4.68;2.58;;;21.10;95.10;;;;;;10498705;28;20447;-70
2023/09/20 13:07:04;;;;;;;4.95;2.47;;;21.30;94.90;;;;;;10503441;28;20409;-70
2023/09/20 13:12:05;;;;;;;4.50;2.50;;;21.90;95.10;;;;;;10498630;28;20795;-70
2023/09/20 13:17:06;;;;;;;4.85;2.53;;;21.60;94.60;;;;;;10496672;28;20420;-71
2023/09/20 13:22:08;;;;;;;7.10;2.33;;;21.60;94.60;;;;;;10494304;28;20417;-71
2023/09/20 13:27:09;;;;;;;3.93;2.47;;;21.60;94.40;;;;;;10489051;28;20406;-71
2023/09/20 13:32:10;;;;;;;3.65;2.40;;;21.60;94.90;;;;;;10481902;28;20407;-71
2023/09/20 13:37:10;;;;;;;5.07;2.50;;;21.60;94.80;;;;;;10493250;28;20497;-71
2023/09/20 13:42:16;;;;;;;4.32;2.42;;;21.50;94.90;;;;;;10493053;28;20431;-70
2023/09/20 13:47:18;;;;;;;5.63;2.40;;;21.50;94.50;;;;;;10499101;28;20413;-70
2023/09/20 13:52:19;;;;;;;6.85;2.60;;;21.50;93.90;;;;;;10506021;28;20405;-71
2023/09/20 13:57:20;;;;;;;7.60;2.40;;;21.50;93.50;;;;;;10499820;28;20404;-71
2023/09/20 14:02:22;;;;;;;5.17;2.40;;;21.70;93.60;;;;;;10500146;28;20421;-71
2023/09/20 14:07:22;;;;;;;5.05;2.45;;;21.90;93.40;;;;;;10495505;28;20394;-71
2023/09/20 14:12:23;;;;;;;5.67;2.47;;;21.90;93.00;;;;;;10498661;28;20432;-71
2023/09/20 14:17:24;;;;;;;4.57;2.40;;;21.90;92.90;;;;;;10494345;28;20549;-72
2023/09/20 14:22:25;;;;;;;4.55;2.20;;;22.00;93.20;;;;;;10501191;28;20934;-72
2023/09/20 14:27:26;;;;;;;5.32;2.40;;;21.90;93.00;;;;;;10476705;28;20435;-72
2023/09/20 14:32:27;;;;;;;5.00;2.10;;;21.90;93.00;;;;;;10482529;28;20504;-72
2023/09/20 14:37:28;;;;;;;4.53;2.10;;;21.80;92.90;;;;;;10489002;28;21346;-72
2023/09/20 14:42:29;;;;;;;2.72;2.00;;;21.90;93.20;;;;;;10491308;28;20423;-72
2023/09/20 14:47:30;;;;;;;4.75;2.40;;;21.90;93.30;;;;;;10498089;28;20407;-72
2023/09/20 14:52:33;;;;;;;3.83;2.30;;;21.90;93.50;;;;;;10495907;28;20459;-71
2023/09/20 14:57:34;;;;;;;5.03;2.53;;;22.00;93.30;;;;;;10488028;28;20405;-71
2023/09/20 15:02:34;;;;;;;4.50;2.33;;;22.00;92.60;;;;;;10494365;28;20909;-71
2023/09/20 15:07:36;;;;;;;3.38;2.20;;;21.90;92.20;;;;;;10487291;28;20416;-71
2023/09/20 15:12:41;;;;;;;5.40;2.20;;;21.80;92.30;;;;;;10499540;28;20394;-72
2023/09/20 15:17:43;;;;;;;4.00;2.17;;;21.70;92.20;;;;;;10492295;28;20902;-72
2023/09/20 15:22:45;;;;;;;2.50;2.17;;;21.60;92.20;;;;;;10490087;28;20481;-71
2023/09/20 15:27:46;;;;;;;6.82;2.40;;;21.60;92.40;;;;;;10490456;28;20419;-69
2023/09/20 15:32:47;;;;;;;4.10;2.00;;;21.60;92.40;;;;;;10501263;28;20915;-67
2023/09/20 15:37:47;;;;;;;4.87;2.10;;;21.60;92.60;;;;;;10498726;28;20490;-68
2023/09/20 15:42:49;;;;;;;4.25;2.10;;;21.50;92.70;;;;;;10499756;28;20410;-68
2023/09/20 15:47:50;;;;;;;5.07;2.20;;;21.50;92.70;;;;;;10497745;28;20399;-69
2023/09/20 15:52:50;;;;;;;4.23;2.00;;;21.40;92.70;;;;;;10509307;28;20430;-69
2023/09/20 15:57:51;;;;;;;3.60;2.07;;;21.50;92.30;;;;;;10504479;28;20914;-69
2023/09/20 16:02:52;;;;;;;2.83;1.83;;;21.50;92.20;;;;;;10508466;28;20456;-70
2023/09/20 16:07:53;;;;;;;4.60;2.20;;;21.40;92.30;;;;;;10503473;28;20407;-69
2023/09/20 16:12:53;;;;;;;3.10;2.00;;;21.30;92.50;;;;;;10510123;28;20411;-70
2023/09/20 16:17:54;;;;;;;3.37;2.03;;;21.40;92.60;;;;;;10504441;28;20441;-69
2023/09/20 16:22:55;;;;;;;4.60;2.00;;;21.30;92.60;;;;;;10505370;28;20408;-70
2023/09/20 16:27:55;;;;;;;3.70;2.00;;;21.20;92.60;;;;;;10492096;28;20911;-69
2023/09/20 16:32:56;;;;;;;2.70;1.77;;;21.40;92.80;;;;;;10495673;28;20540;-70
2023/09/20 16:37:57;;;;;;;4.20;1.70;;;21.20;92.90;;;;;;10500520;28;20775;-68
2023/09/20 16:42:58;;;;;;;3.15;1.58;;;21.10;93.10;;;;;;10508960;28;20411;-71
2023/09/20 16:48:00;;;;;;;2.93;1.47;;;21.10;93.20;;;;;;10494492;28;20901;-71
2023/09/20 16:53:01;;;;;;;3.75;1.77;;;21.10;93.40;;;;;;10500657;28;20453;-71
2023/09/20 16:58:02;;;;;;;4.50;1.60;;;21.00;93.40;;;;;;10499266;28;20459;-71
2023/09/20 17:03:04;;;;;;;3.85;1.80;;;21.00;93.60;;;;;;10494456;28;20477;-71
2023/09/20 17:08:06;;;;;;;3.60;1.35;;;21.00;93.90;;;;;;10499265;28;21078;-71
2023/09/20 17:13:06;;;;;;;3.40;1.60;;;20.90;94.00;;;;;;10512777;28;20398;-71
2023/09/20 17:18:07;;;;;;;3.60;1.48;;;20.90;94.00;;;;;;10496069;28;20390;-72
2023/09/20 17:23:08;;;;;;;2.03;1.30;;;20.90;94.30;;;;;;10465685;28;20426;-73
2023/09/20 17:28:10;;;;;;;3.63;1.52;;;20.80;94.30;;;;;;10486859;28;21183;-72
2023/09/20 17:33:12;;;;;;;4.47;1.77;;;20.70;94.40;;;;;;10492598;28;20851;-73
2023/09/20 17:38:13;;;;;;;3.00;1.40;;;20.70;94.70;;;;;;10482069;28;20424;-72
2023/09/20 17:43:14;;;;;;;2.70;1.50;;;20.80;94.80;;;;;;10494861;28;20412;-74
2023/09/20 17:48:15;;;;;;;6.70;1.70;;;20.80;94.60;;;;;;10491819;28;20835;-68
2023/09/20 17:53:16;;;;;;;3.47;1.77;;;20.80;94.80;;;;;;10489833;28;20490;-68
2023/09/20 17:58:17;;;;;;;3.40;1.80;;;20.90;94.60;;;;;;10490898;28;20540;-68
2023/09/20 18:03:18;;;;;;;5.70;1.63;;;21.00;94.60;;;;;;10466524;28;20436;-67
2023/09/20 18:08:19;;;;;;;2.57;1.50;;;21.00;94.50;;;;;;10473016;28;20420;-67
2023/09/20 18:13:21;;;;;;;4.70;1.67;;;21.00;94.40;;;;;;10477877;28;20813;-68
2023/09/20 18:18:22;;;;;;;3.47;1.73;;;21.00;94.30;;;;;;10487111;28;20407;-68
2023/09/20 18:23:26;;;;;;;3.57;1.70;;;21.10;94.40;;;;;;10480541;28;20907;-68
2023/09/20 18:28:28;;;;;;;3.33;1.80;;;21.10;94.30;;;;;;10483634;28;20918;-68
2023/09/20 18:33:29;;;;;;;2.55;1.65;;;21.10;94.30;;;;;;10485622;28;20415;-68
2023/09/20 18:38:30;;;;;;;3.27;1.80;;;21.00;94.30;;;;;;10482964;28;20832;-67
2023/09/20 18:43:31;;;;;;;3.50;1.73;;;21.00;94.30;;;;;;10488180;28;20505;-69
2023/09/20 18:48:33;;;;;;;2.92;1.88;;;21.00;94.30;;;;;;10486130;28;20459;-67
2023/09/20 18:53:34;;;;;;;3.13;1.80;;;21.00;94.30;;;;;;10490516;28;20402;-68
2023/09/20 18:58:35;;;;;;;3.10;1.90;;;21.00;94.30;;;;;;10484025;28;20463;-68
2023/09/20 19:03:36;;;;;;;4.70;1.80;;;21.00;94.30;;;;;;10488155;28;20406;-68
2023/09/20 19:08:37;;;;;;;3.43;1.53;;;21.00;94.30;;;;;;10492926;28;20432;-68
2023/09/20 19:13:38;;;;;;;3.35;1.95;;;20.90;94.30;;;;;;10486769;28;20402;-68
2023/09/20 19:18:41;;;;;;;2.50;1.70;;;20.90;94.30;;;;;;10485311;28;20770;-68
2023/09/20 19:23:41;;;;;;;3.40;2.15;;;20.90;94.30;;;;;;10489996;28;20446;-69
2023/09/20 19:28:42;;;;;;;3.87;2.00;;;20.90;94.30;;;;;;10495526;28;20418;-68
2023/09/20 19:33:43;;;;;;;3.70;2.27;;;20.90;94.30;;;;;;10490798;28;20419;-68
2023/09/20 19:38:44;;;;;;;3.67;2.27;;;20.90;94.20;;;;;;10493027;28;20426;-69
2023/09/20 19:43:46;;;;;;;4.93;2.20;;;20.90;94.20;;;;;;10499973;28;20409;-68
2023/09/20 19:48:49;;;;;;;3.20;2.10;;;20.80;94.20;;;;;;10496438;28;20479;-68
2023/09/20 19:53:51;;;;;;;3.50;2.22;;;20.80;94.20;;;;;;10494875;28;20795;-68
2023/09/20 19:58:51;;;;;;;4.47;2.10;;;20.80;94.20;;;;;;10491719;28;20829;-69
2023/09/20 20:03:52;;;;;;;3.60;2.33;;;20.80;94.20;;;;;;10492600;28;20437;-68
2023/09/20 20:08:53;;;;;;;3.05;2.30;;;20.80;94.20;;;;;;10492200;28;20414;-69
2023/09/20 20:13:54;;;;;;;2.80;2.22;;;20.80;94.20;;;;;;10494768;28;20494;-67
2023/09/20 20:18:56;;;;;;;3.77;2.30;;;20.80;94.20;;;;;;10499701;28;20841;-66
2023/09/20 20:23:57;;;;;;;2.42;1.90;;;20.70;94.20;;;;;;10493957;28;20449;-74
2023/09/20 20:28:58;;;;;;;3.92;2.42;;;20.70;94.20;;;;;;10488111;28;20502;-69
2023/09/20 20:33:58;;;;;;;3.50;2.30;;;20.70;94.20;;;;;;10485639;28;20508;-68
2023/09/20 20:38:59;;;;;;;4.43;2.30;;;20.70;94.20;;;;;;10490524;28;21035;-68
2023/09/20 20:44:00;;;;;;;3.83;2.23;;;20.70;94.20;;;;;;10495977;28;20480;-68
2023/09/20 20:49:02;;;;;;;3.20;2.27;;;20.70;94.20;;;;;;10488162;28;20398;-68
2023/09/20 20:54:04;;;;;;;2.90;2.30;;;20.60;94.20;;;;;;10488295;28;20401;-67
2023/09/20 20:59:08;;;;;;;2.90;2.23;;;20.60;94.30;;;;;;10492295;28;20523;-67
2023/09/20 21:04:25;;;;;;;4.65;2.42;;;20.60;94.30;;;;;;10488680;28;20414;-67
2023/09/20 21:09:30;;;;;;;4.03;2.22;;;20.60;94.30;;;;;;10498149;28;20411;-68
2023/09/20 21:14:31;;;;;;;3.33;2.22;;;20.60;94.30;;;;;;10490783;28;20487;-68
2023/09/20 21:19:32;;;;;;;3.35;2.13;;;20.50;94.20;;;;;;10493761;28;20813;-67
2023/09/20 21:24:32;;;;;;;2.90;2.17;;;20.50;94.30;;;;;;10493635;28;20488;-68
2023/09/20 21:29:33;;;;;;;3.40;2.40;;;20.50;94.20;;;;;;10487940;28;20452;-68
2023/09/20 21:34:33;;;;;;;3.50;2.10;;;20.50;94.20;;;;;;10491603;28;20419;-68
2023/09/20 21:39:34;;;;;;;3.83;2.33;;;20.50;94.20;;;;;;10494442;28;20395;-68
2023/09/20 21:44:35;;;;;;;3.10;2.43;;;20.50;94.20;;;;;;10491000;28;20460;-68
2023/09/20 21:49:35;;;;;;;3.73;2.60;;;20.50;94.20;;;;;;10492492;28;20560;-68
2023/09/20 21:54:36;;;;;;;4.50;2.40;;;20.50;94.20;;;;;;10493818;28;20407;-68
2023/09/20 21:59:38;;;;;;;4.37;2.70;;;20.40;94.20;;;;;;10500748;28;20401;-68
2023/09/20 22:04:39;;;;;;;3.80;2.17;;;20.90;94.30;;;;;;10491611;28;20410;-68
2023/09/20 22:09:39;;;;;;;4.97;2.60;;;20.40;94.20;;;;;;10501286;28;20394;-68
2023/09/20 22:14:44;;;;;;;3.33;2.30;;;20.40;94.20;;;;;;10486640;28;20392;-69
2023/09/20 22:19:45;;;;;;;3.38;2.47;;;20.40;94.20;;;;;;10493978;28;21022;-68
2023/09/20 22:24:46;;;;;;;3.43;2.40;;;20.40;94.20;;;;;;10497460;28;20410;-68
2023/09/20 22:29:47;;;;;;;4.20;2.30;;;20.40;94.20;;;;;;10487009;28;20914;-67
2023/09/20 22:34:47;;;;;;;2.75;2.28;;;20.40;94.20;;;;;;10500216;28;20411;-68
2023/09/20 22:39:50;;;;;;;2.77;2.30;;;20.40;94.20;;;;;;10505723;28;20900;-68
2023/09/20 22:44:55;;;;;;;2.92;2.42;;;20.40;94.30;;;;;;10495094;28;20415;-68
2023/09/20 22:49:56;;;;;;;3.75;2.67;;;20.40;94.30;;;;;;10504388;28;20430;-69
2023/09/20 22:55:00;;;;;;;3.22;2.38;;;20.30;94.30;;;;;;10507745;28;20398;-68
2023/09/20 23:00:16;;;;;;;4.88;2.60;;;20.40;94.30;;;;;;10501503;28;20782;-68
2023/09/20 23:05:19;;;;;;;2.65;2.33;;;20.30;94.30;;;;;;10510960;28;20525;-68
2023/09/20 23:10:24;;;;;;;3.17;2.50;;;20.30;94.30;;;;;;10501183;28;20402;-68
2023/09/20 23:15:31;;;;;;;4.13;2.37;;;20.30;94.30;;;;;;10495865;28;20412;-68
2023/09/20 23:20:36;;;;;;;3.53;2.70;;;20.30;94.30;;;;;;10503800;28;20399;-68
2023/09/20 23:25:39;;;;;;;3.75;2.47;;;20.30;94.30;;;;;;10495256;28;20398;-65
2023/09/20 23:30:45;;;;;;;3.78;2.60;;;20.30;94.30;;;;;;10486465;28;20772;-67
2023/09/20 23:35:56;;;;;;;3.90;2.47;;;20.20;94.30;;;;;;10491032;28;20418;-68
2023/09/20 23:41:16;;;;;;;3.67;2.58;;;20.20;94.30;;;;;;10496595;28;20415;-68
2023/09/20 23:46:20;;;;;;;4.93;2.58;;;20.20;94.30;;;;;;10495688;28;20421;-68
2023/09/20 23:51:22;;;;;;;2.97;2.17;;;20.20;94.40;;;;;;10498346;28;20404;-66
2023/09/20 23:56:23;;;;;;;3.88;2.40;;;20.20;94.30;;;;;;10496080;28;20566;-68
